sensor_id;sensor_type;location;lat;lon;timestamp;temperature;humidity
4433;DHT22;2229;48.708;9.706;2023-07-31T00:01:27;14.90;96.80
4433;DHT22;2229;48.708;9.706;2023-07-31T00:03:56;14.90;96.80
4433;DHT22;2229;48.708;9.706;2023-07-31T00:06:24;14.90;96.90
4433;DHT22;2229;48.708;9.706;2023-07-31T00:08:51;14.90;97.00
4433;DHT22;2229;48.708;9.706;2023-07-31T00:11:18;14.90;97.30
4433;DHT22;2229;48.708;9.706;2023-07-31T00:13:46;14.80;97.00
4433;DHT22;2229;48.708;9.706;2023-07-31T00:16:13;14.90;97.10
4433;DHT22;2229;48.708;9.706;2023-07-31T00:18:41;14.80;97.10
4433;DHT22;2229;48.708;9.706;2023-07-31T00:21:10;14.90;97.20
4433;DHT22;2229;48.708;9.706;2023-07-31T00:23:37;14.80;97.10
4433;DHT22;2229;48.708;9.706;2023-07-31T00:26:05;14.90;97.10
4433;DHT22;2229;48.708;9.706;2023-07-31T00:28:32;14.90;97.10
4433;DHT22;2229;48.708;9.706;2023-07-31T00:31:00;14.90;97.10
4433;DHT22;2229;48.708;9.706;2023-07-31T00:33:27;14.90;97.10
4433;DHT22;2229;48.708;9.706;2023-07-31T00:35:55;14.90;97.10
4433;DHT22;2229;48.708;9.706;2023-07-31T00:38:28;14.80;97.10
4433;DHT22;2229;48.708;9.706;2023-07-31T00:40:55;14.80;97.20
4433;DHT22;2229;48.708;9.706;2023-07-31T00:43:24;14.80;97.20
4433;DHT22;2229;48.708;9.706;2023-07-31T00:45:51;14.70;97.30
4433;DHT22;2229;48.708;9.706;2023-07-31T00:48:19;14.70;97.40
4433;DHT22;2229;48.708;9.706;2023-07-31T00:50:47;14.70;97.50
4433;DHT22;2229;48.708;9.706;2023-07-31T00:53:14;14.70;97.50
4433;DHT22;2229;48.708;9.706;2023-07-31T00:55:44;14.70;97.60
4433;DHT22;2229;48.708;9.706;2023-07-31T00:58:13;14.80;97.70
4433;DHT22;2229;48.708;9.706;2023-07-31T01:00:41;14.80;97.60
4433;DHT22;2229;48.708;9.706;2023-07-31T01:03:08;14.80;97.60
4433;DHT22;2229;48.708;9.706;2023-07-31T01:05:43;14.80;97.40
4433;DHT22;2229;48.708;9.706;2023-07-31T01:08:18;14.90;97.40
4433;DHT22;2229;48.708;9.706;2023-07-31T01:10:56;14.90;97.40
4433;DHT22;2229;48.708;9.706;2023-07-31T01:13:24;14.90;97.30
4433;DHT22;2229;48.708;9.706;2023-07-31T01:15:52;14.80;97.30
4433;DHT22;2229;48.708;9.706;2023-07-31T01:18:20;14.80;97.30
4433;DHT22;2229;48.708;9.706;2023-07-31T01:21:15;14.80;97.30
4433;DHT22;2229;48.708;9.706;2023-07-31T01:24:19;14.70;97.30
4433;DHT22;2229;48.708;9.706;2023-07-31T01:26:53;14.60;97.30
4433;DHT22;2229;48.708;9.706;2023-07-31T01:29:29;14.60;97.50
4433;DHT22;2229;48.708;9.706;2023-07-31T01:32:02;14.50;97.60
4433;DHT22;2229;48.708;9.706;2023-07-31T01:34:29;14.50;97.60
4433;DHT22;2229;48.708;9.706;2023-07-31T01:36:58;14.50;97.70
4433;DHT22;2229;48.708;9.706;2023-07-31T01:39:26;14.40;97.80
4433;DHT22;2229;48.708;9.706;2023-07-31T01:41:55;14.40;97.80
4433;DHT22;2229;48.708;9.706;2023-07-31T01:44:22;14.40;97.90
4433;DHT22;2229;48.708;9.706;2023-07-31T01:46:50;14.40;98.00
4433;DHT22;2229;48.708;9.706;2023-07-31T01:49:18;14.40;98.10
4433;DHT22;2229;48.708;9.706;2023-07-31T01:51:46;14.40;98.10
4433;DHT22;2229;48.708;9.706;2023-07-31T01:54:13;14.40;98.10
4433;DHT22;2229;48.708;9.706;2023-07-31T01:56:41;14.40;98.10
4433;DHT22;2229;48.708;9.706;2023-07-31T01:59:10;14.30;98.10
4433;DHT22;2229;48.708;9.706;2023-07-31T02:01:37;14.30;98.10
4433;DHT22;2229;48.708;9.706;2023-07-31T02:04:05;14.30;98.10
4433;DHT22;2229;48.708;9.706;2023-07-31T02:06:32;14.20;98.10
4433;DHT22;2229;48.708;9.706;2023-07-31T02:09:00;14.20;98.10
4433;DHT22;2229;48.708;9.706;2023-07-31T02:11:27;14.10;98.10
4433;DHT22;2229;48.708;9.706;2023-07-31T02:13:57;14.10;98.20
4433;DHT22;2229;48.708;9.706;2023-07-31T02:16:26;14.10;98.30
4433;DHT22;2229;48.708;9.706;2023-07-31T02:18:54;14.00;98.40
4433;DHT22;2229;48.708;9.706;2023-07-31T02:21:21;14.00;98.60
4433;DHT22;2229;48.708;9.706;2023-07-31T02:23:48;14.00;98.70
4433;DHT22;2229;48.708;9.706;2023-07-31T02:26:16;14.00;98.80
4433;DHT22;2229;48.708;9.706;2023-07-31T02:28:44;14.00;98.80
4433;DHT22;2229;48.708;9.706;2023-07-31T02:31:11;14.00;98.90
4433;DHT22;2229;48.708;9.706;2023-07-31T02:33:41;14.00;98.90
4433;DHT22;2229;48.708;9.706;2023-07-31T02:36:09;14.00;98.90
4433;DHT22;2229;48.708;9.706;2023-07-31T02:38:37;14.00;99.00
4433;DHT22;2229;48.708;9.706;2023-07-31T02:41:06;14.00;99.00
4433;DHT22;2229;48.708;9.706;2023-07-31T02:43:33;14.00;99.00
4433;DHT22;2229;48.708;9.706;2023-07-31T02:46:01;14.00;99.00
4433;DHT22;2229;48.708;9.706;2023-07-31T02:48:28;14.00;99.10
4433;DHT22;2229;48.708;9.706;2023-07-31T02:50:57;14.00;99.00
4433;DHT22;2229;48.708;9.706;2023-07-31T02:53:24;14.00;99.00
4433;DHT22;2229;48.708;9.706;2023-07-31T02:55:51;13.90;99.00
4433;DHT22;2229;48.708;9.706;2023-07-31T02:58:19;13.90;99.00
4433;DHT22;2229;48.708;9.706;2023-07-31T03:00:47;13.80;99.00
4433;DHT22;2229;48.708;9.706;2023-07-31T03:03:14;13.80;99.00
4433;DHT22;2229;48.708;9.706;2023-07-31T03:05:42;13.90;99.10
4433;DHT22;2229;48.708;9.706;2023-07-31T03:08:10;13.70;99.00
4433;DHT22;2229;48.708;9.706;2023-07-31T03:10:38;13.70;99.10
4433;DHT22;2229;48.708;9.706;2023-07-31T03:13:05;13.70;99.10
4433;DHT22;2229;48.708;9.706;2023-07-31T03:15:33;13.70;99.30
4433;DHT22;2229;48.708;9.706;2023-07-31T03:18:01;13.60;99.30
4433;DHT22;2229;48.708;9.706;2023-07-31T03:20:28;13.60;99.30
4433;DHT22;2229;48.708;9.706;2023-07-31T03:22:55;13.60;99.40
4433;DHT22;2229;48.708;9.706;2023-07-31T03:25:24;13.60;99.60
4433;DHT22;2229;48.708;9.706;2023-07-31T03:27:51;13.60;99.70
4433;DHT22;2229;48.708;9.706;2023-07-31T03:30:19;13.60;99.80
4433;DHT22;2229;48.708;9.706;2023-07-31T03:32:46;13.60;99.80
4433;DHT22;2229;48.708;9.706;2023-07-31T03:35:13;13.60;99.80
4433;DHT22;2229;48.708;9.706;2023-07-31T03:37:43;13.50;99.60
4433;DHT22;2229;48.708;9.706;2023-07-31T03:40:11;13.50;99.60
4433;DHT22;2229;48.708;9.706;2023-07-31T03:42:40;13.50;99.60
4433;DHT22;2229;48.708;9.706;2023-07-31T03:45:10;13.40;99.60
4433;DHT22;2229;48.708;9.706;2023-07-31T03:47:37;13.40;99.70
4433;DHT22;2229;48.708;9.706;2023-07-31T03:50:05;13.40;99.80
4433;DHT22;2229;48.708;9.706;2023-07-31T03:52:32;13.30;99.80
4433;DHT22;2229;48.708;9.706;2023-07-31T03:55:00;13.30;99.90
4433;DHT22;2229;48.708;9.706;2023-07-31T03:57:27;13.30;99.90
4433;DHT22;2229;48.708;9.706;2023-07-31T03:59:55;13.30;99.90
4433;DHT22;2229;48.708;9.706;2023-07-31T04:02:23;13.30;99.90
4433;DHT22;2229;48.708;9.706;2023-07-31T04:04:51;13.30;99.90
4433;DHT22;2229;48.708;9.706;2023-07-31T04:07:18;13.30;99.90
4433;DHT22;2229;48.708;9.706;2023-07-31T04:09:45;13.30;99.90
4433;DHT22;2229;48.708;9.706;2023-07-31T04:12:12;13.40;99.90
4433;DHT22;2229;48.708;9.706;2023-07-31T04:14:39;13.40;99.90
4433;DHT22;2229;48.708;9.706;2023-07-31T04:17:08;13.40;99.90
4433;DHT22;2229;48.708;9.706;2023-07-31T04:19:35;13.50;99.90
4433;DHT22;2229;48.708;9.706;2023-07-31T04:22:03;13.50;99.90
4433;DHT22;2229;48.708;9.706;2023-07-31T04:24:31;13.50;99.90
4433;DHT22;2229;48.708;9.706;2023-07-31T04:26:59;13.50;99.90
4433;DHT22;2229;48.708;9.706;2023-07-31T04:29:26;13.50;99.90
4433;DHT22;2229;48.708;9.706;2023-07-31T04:31:53;13.60;99.90
4433;DHT22;2229;48.708;9.706;2023-07-31T04:34:22;13.60;99.90
4433;DHT22;2229;48.708;9.706;2023-07-31T04:36:50;13.70;99.90
4433;DHT22;2229;48.708;9.706;2023-07-31T04:39:18;13.70;99.90
4433;DHT22;2229;48.708;9.706;2023-07-31T04:41:46;13.80;99.90
4433;DHT22;2229;48.708;9.706;2023-07-31T04:44:13;13.90;99.90
4433;DHT22;2229;48.708;9.706;2023-07-31T04:46:40;13.90;99.90
4433;DHT22;2229;48.708;9.706;2023-07-31T04:49:07;14.00;99.90
4433;DHT22;2229;48.708;9.706;2023-07-31T04:51:36;14.10;99.90
4433;DHT22;2229;48.708;9.706;2023-07-31T04:54:04;14.20;99.90
4433;DHT22;2229;48.708;9.706;2023-07-31T04:56:31;14.30;99.90
4433;DHT22;2229;48.708;9.706;2023-07-31T04:58:58;14.40;99.90
4433;DHT22;2229;48.708;9.706;2023-07-31T05:01:25;14.40;99.90
4433;DHT22;2229;48.708;9.706;2023-07-31T05:03:53;14.50;99.90
4433;DHT22;2229;48.708;9.706;2023-07-31T05:06:20;14.50;99.90
4433;DHT22;2229;48.708;9.706;2023-07-31T05:08:49;14.60;99.90
4433;DHT22;2229;48.708;9.706;2023-07-31T05:11:16;14.60;99.90
4433;DHT22;2229;48.708;9.706;2023-07-31T05:13:43;14.70;99.90
4433;DHT22;2229;48.708;9.706;2023-07-31T05:16:10;14.80;99.90
4433;DHT22;2229;48.708;9.706;2023-07-31T05:18:38;14.80;99.90
4433;DHT22;2229;48.708;9.706;2023-07-31T05:21:05;14.90;99.90
4433;DHT22;2229;48.708;9.706;2023-07-31T05:23:33;14.90;99.90
4433;DHT22;2229;48.708;9.706;2023-07-31T05:26:04;14.90;99.90
4433;DHT22;2229;48.708;9.706;2023-07-31T05:28:33;15.00;99.90
4433;DHT22;2229;48.708;9.706;2023-07-31T05:31:00;15.10;99.90
4433;DHT22;2229;48.708;9.706;2023-07-31T05:33:28;15.10;99.90
4433;DHT22;2229;48.708;9.706;2023-07-31T05:35:55;15.20;99.90
4433;DHT22;2229;48.708;9.706;2023-07-31T05:38:23;15.20;99.90
4433;DHT22;2229;48.708;9.706;2023-07-31T05:40:50;15.30;99.90
4433;DHT22;2229;48.708;9.706;2023-07-31T05:43:20;15.40;99.90
4433;DHT22;2229;48.708;9.706;2023-07-31T05:45:47;15.40;99.90
4433;DHT22;2229;48.708;9.706;2023-07-31T05:48:14;15.50;99.90
4433;DHT22;2229;48.708;9.706;2023-07-31T05:50:43;15.50;99.90
4433;DHT22;2229;48.708;9.706;2023-07-31T05:53:10;15.50;99.90
4433;DHT22;2229;48.708;9.706;2023-07-31T05:55:37;15.50;99.90
4433;DHT22;2229;48.708;9.706;2023-07-31T05:58:05;15.60;99.90
4433;DHT22;2229;48.708;9.706;2023-07-31T06:00:33;15.60;99.90
4433;DHT22;2229;48.708;9.706;2023-07-31T06:03:00;15.70;99.90
4433;DHT22;2229;48.708;9.706;2023-07-31T06:05:28;15.80;99.90
4433;DHT22;2229;48.708;9.706;2023-07-31T06:07:55;15.90;99.90
4433;DHT22;2229;48.708;9.706;2023-07-31T06:10:23;15.90;99.90
4433;DHT22;2229;48.708;9.706;2023-07-31T06:12:50;16.00;99.90
4433;DHT22;2229;48.708;9.706;2023-07-31T06:15:18;16.10;99.90
4433;DHT22;2229;48.708;9.706;2023-07-31T06:17:50;16.10;99.90
4433;DHT22;2229;48.708;9.706;2023-07-31T06:20:17;16.30;99.90
4433;DHT22;2229;48.708;9.706;2023-07-31T06:22:45;16.30;99.90
4433;DHT22;2229;48.708;9.706;2023-07-31T06:25:12;16.50;99.90
4433;DHT22;2229;48.708;9.706;2023-07-31T06:27:39;16.60;99.90
4433;DHT22;2229;48.708;9.706;2023-07-31T06:30:08;16.60;99.70
4433;DHT22;2229;48.708;9.706;2023-07-31T06:32:35;16.70;99.50
4433;DHT22;2229;48.708;9.706;2023-07-31T06:35:05;16.80;99.30
4433;DHT22;2229;48.708;9.706;2023-07-31T06:37:32;16.90;99.30
4433;DHT22;2229;48.708;9.706;2023-07-31T06:39:59;17.00;99.10
4433;DHT22;2229;48.708;9.706;2023-07-31T06:42:27;17.10;99.00
4433;DHT22;2229;48.708;9.706;2023-07-31T06:44:54;17.20;99.10
4433;DHT22;2229;48.708;9.706;2023-07-31T06:47:23;17.30;98.90
4433;DHT22;2229;48.708;9.706;2023-07-31T06:49:50;17.40;98.90
4433;DHT22;2229;48.708;9.706;2023-07-31T06:52:19;17.60;99.00
4433;DHT22;2229;48.708;9.706;2023-07-31T06:55:00;17.70;98.90
4433;DHT22;2229;48.708;9.706;2023-07-31T06:57:28;17.70;98.60
4433;DHT22;2229;48.708;9.706;2023-07-31T06:59:55;17.70;98.30
4433;DHT22;2229;48.708;9.706;2023-07-31T07:02:23;17.80;98.30
4433;DHT22;2229;48.708;9.706;2023-07-31T07:04:50;17.80;98.20
4433;DHT22;2229;48.708;9.706;2023-07-31T07:07:19;17.90;98.10
4433;DHT22;2229;48.708;9.706;2023-07-31T07:09:46;17.90;98.10
4433;DHT22;2229;48.708;9.706;2023-07-31T07:12:13;17.90;98.10
4433;DHT22;2229;48.708;9.706;2023-07-31T07:14:41;17.90;98.10
4433;DHT22;2229;48.708;9.706;2023-07-31T07:17:08;18.00;97.90
4433;DHT22;2229;48.708;9.706;2023-07-31T07:19:35;18.00;97.90
4433;DHT22;2229;48.708;9.706;2023-07-31T07:22:03;18.00;97.80
4433;DHT22;2229;48.708;9.706;2023-07-31T07:24:33;18.00;97.70
4433;DHT22;2229;48.708;9.706;2023-07-31T07:27:00;18.10;97.50
4433;DHT22;2229;48.708;9.706;2023-07-31T07:29:27;18.10;97.30
4433;DHT22;2229;48.708;9.706;2023-07-31T07:31:54;18.10;97.30
4433;DHT22;2229;48.708;9.706;2023-07-31T07:34:22;18.20;97.20
4433;DHT22;2229;48.708;9.706;2023-07-31T07:36:50;18.20;97.20
4433;DHT22;2229;48.708;9.706;2023-07-31T07:39:17;18.30;97.30
4433;DHT22;2229;48.708;9.706;2023-07-31T07:41:46;18.60;97.50
4433;DHT22;2229;48.708;9.706;2023-07-31T07:44:13;18.80;97.20
4433;DHT22;2229;48.708;9.706;2023-07-31T07:46:41;19.00;97.10
4433;DHT22;2229;48.708;9.706;2023-07-31T07:49:08;19.20;96.70
4433;DHT22;2229;48.708;9.706;2023-07-31T07:51:35;19.40;95.90
4433;DHT22;2229;48.708;9.706;2023-07-31T07:54:02;19.60;95.90
4433;DHT22;2229;48.708;9.706;2023-07-31T07:56:30;19.70;95.70
4433;DHT22;2229;48.708;9.706;2023-07-31T07:58:58;19.90;95.40
4433;DHT22;2229;48.708;9.706;2023-07-31T08:01:26;20.00;95.00
4433;DHT22;2229;48.708;9.706;2023-07-31T08:03:53;20.10;94.60
4433;DHT22;2229;48.708;9.706;2023-07-31T08:06:20;20.30;94.90
4433;DHT22;2229;48.708;9.706;2023-07-31T08:08:48;20.40;94.70
4433;DHT22;2229;48.708;9.706;2023-07-31T08:11:15;20.50;94.20
4433;DHT22;2229;48.708;9.706;2023-07-31T08:13:42;20.60;93.10
4433;DHT22;2229;48.708;9.706;2023-07-31T08:16:14;20.70;93.30
4433;DHT22;2229;48.708;9.706;2023-07-31T08:18:41;20.90;93.00
4433;DHT22;2229;48.708;9.706;2023-07-31T08:21:08;21.00;92.10
4433;DHT22;2229;48.708;9.706;2023-07-31T08:23:36;21.10;91.80
4433;DHT22;2229;48.708;9.706;2023-07-31T08:26:03;21.20;91.60
4433;DHT22;2229;48.708;9.706;2023-07-31T08:28:30;21.40;91.40
4433;DHT22;2229;48.708;9.706;2023-07-31T08:30:57;21.40;90.60
4433;DHT22;2229;48.708;9.706;2023-07-31T08:33:26;21.50;90.70
4433;DHT22;2229;48.708;9.706;2023-07-31T08:35:53;21.60;90.60
4433;DHT22;2229;48.708;9.706;2023-07-31T08:38:21;21.70;90.80
4433;DHT22;2229;48.708;9.706;2023-07-31T08:40:51;21.90;90.10
4433;DHT22;2229;48.708;9.706;2023-07-31T08:43:20;22.00;89.40
4433;DHT22;2229;48.708;9.706;2023-07-31T08:45:49;22.10;88.30
4433;DHT22;2229;48.708;9.706;2023-07-31T08:48:18;22.00;86.70
4433;DHT22;2229;48.708;9.706;2023-07-31T08:50:47;21.90;86.30
4433;DHT22;2229;48.708;9.706;2023-07-31T08:53:14;21.90;86.30
4433;DHT22;2229;48.708;9.706;2023-07-31T08:55:43;22.00;85.70
4433;DHT22;2229;48.708;9.706;2023-07-31T08:58:12;22.20;86.20
4433;DHT22;2229;48.708;9.706;2023-07-31T09:00:40;22.50;85.60
4433;DHT22;2229;48.708;9.706;2023-07-31T09:03:13;22.70;85.00
4433;DHT22;2229;48.708;9.706;2023-07-31T09:05:43;22.90;84.00
4433;DHT22;2229;48.708;9.706;2023-07-31T09:08:14;23.10;82.60
4433;DHT22;2229;48.708;9.706;2023-07-31T09:10:43;23.30;82.10
4433;DHT22;2229;48.708;9.706;2023-07-31T09:13:11;23.40;81.30
4433;DHT22;2229;48.708;9.706;2023-07-31T09:15:40;23.40;81.30
4433;DHT22;2229;48.708;9.706;2023-07-31T09:18:08;23.50;81.20
4433;DHT22;2229;48.708;9.706;2023-07-31T09:20:36;23.60;80.90
4433;DHT22;2229;48.708;9.706;2023-07-31T09:23:08;23.80;81.20
4433;DHT22;2229;48.708;9.706;2023-07-31T09:25:37;24.10;80.40
4433;DHT22;2229;48.708;9.706;2023-07-31T09:28:06;24.30;78.20
4433;DHT22;2229;48.708;9.706;2023-07-31T09:30:45;24.40;76.90
4433;DHT22;2229;48.708;9.706;2023-07-31T09:33:13;24.60;76.60
4433;DHT22;2229;48.708;9.706;2023-07-31T09:35:41;24.60;75.00
4433;DHT22;2229;48.708;9.706;2023-07-31T09:38:10;24.70;74.70
4433;DHT22;2229;48.708;9.706;2023-07-31T09:40:41;24.70;74.30
4433;DHT22;2229;48.708;9.706;2023-07-31T09:43:09;24.70;74.50
4433;DHT22;2229;48.708;9.706;2023-07-31T09:45:39;24.80;74.40
4433;DHT22;2229;48.708;9.706;2023-07-31T09:48:07;24.90;74.10
4433;DHT22;2229;48.708;9.706;2023-07-31T09:50:38;25.00;73.70
4433;DHT22;2229;48.708;9.706;2023-07-31T09:53:06;25.10;73.20
4433;DHT22;2229;48.708;9.706;2023-07-31T09:55:34;25.10;73.20
4433;DHT22;2229;48.708;9.706;2023-07-31T09:58:05;25.10;72.10
4433;DHT22;2229;48.708;9.706;2023-07-31T10:00:32;24.90;72.40
4433;DHT22;2229;48.708;9.706;2023-07-31T10:03:01;24.60;72.70
4433;DHT22;2229;48.708;9.706;2023-07-31T10:05:31;24.40;72.10
4433;DHT22;2229;48.708;9.706;2023-07-31T10:08:01;24.30;73.20
4433;DHT22;2229;48.708;9.706;2023-07-31T10:10:28;24.10;73.10
4433;DHT22;2229;48.708;9.706;2023-07-31T10:12:56;24.00;73.40
4433;DHT22;2229;48.708;9.706;2023-07-31T10:15:28;24.00;73.80
4433;DHT22;2229;48.708;9.706;2023-07-31T10:17:56;24.00;74.00
4433;DHT22;2229;48.708;9.706;2023-07-31T10:20:24;24.00;73.20
4433;DHT22;2229;48.708;9.706;2023-07-31T10:22:54;24.00;73.20
4433;DHT22;2229;48.708;9.706;2023-07-31T10:25:22;23.90;72.90
4433;DHT22;2229;48.708;9.706;2023-07-31T10:27:50;24.00;74.30
4433;DHT22;2229;48.708;9.706;2023-07-31T10:30:24;24.10;73.20
4433;DHT22;2229;48.708;9.706;2023-07-31T10:32:53;24.10;73.40
4433;DHT22;2229;48.708;9.706;2023-07-31T10:35:21;24.20;72.90
4433;DHT22;2229;48.708;9.706;2023-07-31T10:37:49;24.30;73.20
4433;DHT22;2229;48.708;9.706;2023-07-31T10:40:18;24.20;72.70
4433;DHT22;2229;48.708;9.706;2023-07-31T10:42:47;24.00;71.80
4433;DHT22;2229;48.708;9.706;2023-07-31T10:45:25;24.00;73.00
4433;DHT22;2229;48.708;9.706;2023-07-31T10:48:00;23.90;73.30
4433;DHT22;2229;48.708;9.706;2023-07-31T10:50:28;23.80;73.60
4433;DHT22;2229;48.708;9.706;2023-07-31T10:52:59;23.70;73.40
4433;DHT22;2229;48.708;9.706;2023-07-31T10:55:29;23.80;73.80
4433;DHT22;2229;48.708;9.706;2023-07-31T10:57:57;24.10;74.40
4433;DHT22;2229;48.708;9.706;2023-07-31T11:00:26;24.30;74.00
4433;DHT22;2229;48.708;9.706;2023-07-31T11:03:00;24.60;73.30
4433;DHT22;2229;48.708;9.706;2023-07-31T11:05:48;24.90;72.30
4433;DHT22;2229;48.708;9.706;2023-07-31T11:08:21;25.10;71.40
4433;DHT22;2229;48.708;9.706;2023-07-31T11:10:50;25.20;72.20
4433;DHT22;2229;48.708;9.706;2023-07-31T11:13:18;25.40;70.80
4433;DHT22;2229;48.708;9.706;2023-07-31T11:15:45;25.60;70.00
4433;DHT22;2229;48.708;9.706;2023-07-31T11:18:13;25.70;71.10
4433;DHT22;2229;48.708;9.706;2023-07-31T11:20:42;25.90;70.80
4433;DHT22;2229;48.708;9.706;2023-07-31T11:23:10;26.10;69.70
4433;DHT22;2229;48.708;9.706;2023-07-31T11:25:38;26.30;69.40
4433;DHT22;2229;48.708;9.706;2023-07-31T11:28:09;26.60;69.70
4433;DHT22;2229;48.708;9.706;2023-07-31T11:30:37;26.70;69.00
4433;DHT22;2229;48.708;9.706;2023-07-31T11:33:05;26.90;69.30
4433;DHT22;2229;48.708;9.706;2023-07-31T11:35:35;27.10;67.80
4433;DHT22;2229;48.708;9.706;2023-07-31T11:38:03;27.20;67.30
4433;DHT22;2229;48.708;9.706;2023-07-31T11:40:30;27.30;67.10
4433;DHT22;2229;48.708;9.706;2023-07-31T11:42:58;27.30;67.20
4433;DHT22;2229;48.708;9.706;2023-07-31T11:45:26;27.30;67.40
4433;DHT22;2229;48.708;9.706;2023-07-31T11:47:55;27.10;67.30
4433;DHT22;2229;48.708;9.706;2023-07-31T11:50:23;27.10;67.50
4433;DHT22;2229;48.708;9.706;2023-07-31T11:52:57;27.00;67.30
4433;DHT22;2229;48.708;9.706;2023-07-31T11:55:26;26.90;67.30
4433;DHT22;2229;48.708;9.706;2023-07-31T11:57:57;26.60;67.00
4433;DHT22;2229;48.708;9.706;2023-07-31T12:00:26;26.40;67.30
4433;DHT22;2229;48.708;9.706;2023-07-31T12:02:54;26.20;67.10
4433;DHT22;2229;48.708;9.706;2023-07-31T12:05:22;26.10;68.20
4433;DHT22;2229;48.708;9.706;2023-07-31T12:07:51;25.90;68.40
4433;DHT22;2229;48.708;9.706;2023-07-31T12:10:28;25.80;68.10
4433;DHT22;2229;48.708;9.706;2023-07-31T12:13:01;25.60;68.70
4433;DHT22;2229;48.708;9.706;2023-07-31T12:15:38;25.50;69.10
4433;DHT22;2229;48.708;9.706;2023-07-31T12:18:08;25.40;69.30
4433;DHT22;2229;48.708;9.706;2023-07-31T12:20:43;25.20;69.40
4433;DHT22;2229;48.708;9.706;2023-07-31T12:23:15;25.10;70.10
4433;DHT22;2229;48.708;9.706;2023-07-31T12:25:44;24.90;70.40
4433;DHT22;2229;48.708;9.706;2023-07-31T12:28:11;24.80;70.90
4433;DHT22;2229;48.708;9.706;2023-07-31T12:30:39;24.70;70.90
4433;DHT22;2229;48.708;9.706;2023-07-31T12:33:12;24.60;70.70
4433;DHT22;2229;48.708;9.706;2023-07-31T12:35:43;24.50;70.90
4433;DHT22;2229;48.708;9.706;2023-07-31T12:38:11;24.40;70.90
4433;DHT22;2229;48.708;9.706;2023-07-31T12:40:40;24.40;71.40
4433;DHT22;2229;48.708;9.706;2023-07-31T12:43:09;24.40;71.80
4433;DHT22;2229;48.708;9.706;2023-07-31T12:45:36;24.50;71.70
4433;DHT22;2229;48.708;9.706;2023-07-31T12:48:03;24.40;71.80
4433;DHT22;2229;48.708;9.706;2023-07-31T12:50:31;24.40;72.20
4433;DHT22;2229;48.708;9.706;2023-07-31T12:52:58;24.40;72.00
4433;DHT22;2229;48.708;9.706;2023-07-31T12:55:25;24.40;71.70
4433;DHT22;2229;48.708;9.706;2023-07-31T12:57:52;24.30;71.90
4433;DHT22;2229;48.708;9.706;2023-07-31T13:00:21;24.30;72.60
4433;DHT22;2229;48.708;9.706;2023-07-31T13:02:48;24.40;73.10
4433;DHT22;2229;48.708;9.706;2023-07-31T13:05:16;24.40;72.60
4433;DHT22;2229;48.708;9.706;2023-07-31T13:07:43;24.30;72.70
4433;DHT22;2229;48.708;9.706;2023-07-31T13:10:11;24.30;72.60
4433;DHT22;2229;48.708;9.706;2023-07-31T13:12:38;24.30;72.20
4433;DHT22;2229;48.708;9.706;2023-07-31T13:15:06;24.30;72.20
4433;DHT22;2229;48.708;9.706;2023-07-31T13:17:35;24.20;72.00
4433;DHT22;2229;48.708;9.706;2023-07-31T13:20:05;24.20;72.30
4433;DHT22;2229;48.708;9.706;2023-07-31T13:22:32;24.10;72.40
4433;DHT22;2229;48.708;9.706;2023-07-31T13:25:00;24.00;72.70
4433;DHT22;2229;48.708;9.706;2023-07-31T13:27:30;24.00;73.20
4433;DHT22;2229;48.708;9.706;2023-07-31T13:29:57;23.90;73.80
4433;DHT22;2229;48.708;9.706;2023-07-31T13:32:26;23.90;73.70
4433;DHT22;2229;48.708;9.706;2023-07-31T13:34:55;23.80;73.50
4433;DHT22;2229;48.708;9.706;2023-07-31T13:37:22;23.80;73.70
4433;DHT22;2229;48.708;9.706;2023-07-31T13:39:49;23.80;73.70
4433;DHT22;2229;48.708;9.706;2023-07-31T13:42:17;23.80;73.60
4433;DHT22;2229;48.708;9.706;2023-07-31T13:44:44;23.80;74.00
4433;DHT22;2229;48.708;9.706;2023-07-31T13:47:11;23.90;73.40
4433;DHT22;2229;48.708;9.706;2023-07-31T13:49:38;24.00;73.50
4433;DHT22;2229;48.708;9.706;2023-07-31T13:52:08;24.10;73.60
4433;DHT22;2229;48.708;9.706;2023-07-31T13:54:36;24.10;73.20
4433;DHT22;2229;48.708;9.706;2023-07-31T13:57:03;24.00;72.80
4433;DHT22;2229;48.708;9.706;2023-07-31T13:59:31;24.00;72.80
4433;DHT22;2229;48.708;9.706;2023-07-31T14:01:58;23.90;73.10
4433;DHT22;2229;48.708;9.706;2023-07-31T14:04:25;23.80;73.00
4433;DHT22;2229;48.708;9.706;2023-07-31T14:06:52;23.80;73.50
4433;DHT22;2229;48.708;9.706;2023-07-31T14:09:21;23.70;73.00
4433;DHT22;2229;48.708;9.706;2023-07-31T14:11:48;23.70;73.40
4433;DHT22;2229;48.708;9.706;2023-07-31T14:14:16;23.70;72.80
4433;DHT22;2229;48.708;9.706;2023-07-31T14:16:43;23.60;73.00
4433;DHT22;2229;48.708;9.706;2023-07-31T14:19:11;23.70;73.50
4433;DHT22;2229;48.708;9.706;2023-07-31T14:21:38;23.60;72.60
4433;DHT22;2229;48.708;9.706;2023-07-31T14:24:05;23.50;71.90
4433;DHT22;2229;48.708;9.706;2023-07-31T14:26:34;23.40;71.80
4433;DHT22;2229;48.708;9.706;2023-07-31T14:29:01;23.30;72.10
4433;DHT22;2229;48.708;9.706;2023-07-31T14:31:28;23.30;72.60
4433;DHT22;2229;48.708;9.706;2023-07-31T14:33:55;23.20;72.80
4433;DHT22;2229;48.708;9.706;2023-07-31T14:36:23;23.20;73.40
4433;DHT22;2229;48.708;9.706;2023-07-31T14:38:50;23.10;73.90
4433;DHT22;2229;48.708;9.706;2023-07-31T14:41:17;23.10;74.10
4433;DHT22;2229;48.708;9.706;2023-07-31T14:43:46;23.10;74.20
4433;DHT22;2229;48.708;9.706;2023-07-31T14:46:13;23.10;74.60
4433;DHT22;2229;48.708;9.706;2023-07-31T14:48:40;23.00;74.60
4433;DHT22;2229;48.708;9.706;2023-07-31T14:51:08;23.00;74.60
4433;DHT22;2229;48.708;9.706;2023-07-31T14:53:35;23.10;74.90
4433;DHT22;2229;48.708;9.706;2023-07-31T14:56:03;23.10;75.40
4433;DHT22;2229;48.708;9.706;2023-07-31T14:58:30;23.10;75.60
4433;DHT22;2229;48.708;9.706;2023-07-31T15:00:59;23.20;75.70
4433;DHT22;2229;48.708;9.706;2023-07-31T15:03:26;23.20;75.40
4433;DHT22;2229;48.708;9.706;2023-07-31T15:05:53;23.20;75.70
4433;DHT22;2229;48.708;9.706;2023-07-31T15:08:20;23.10;75.80
4433;DHT22;2229;48.708;9.706;2023-07-31T15:10:47;23.10;75.80
4433;DHT22;2229;48.708;9.706;2023-07-31T15:13:15;23.10;75.80
4433;DHT22;2229;48.708;9.706;2023-07-31T15:15:42;23.10;76.00
4433;DHT22;2229;48.708;9.706;2023-07-31T15:18:12;23.10;76.70
4433;DHT22;2229;48.708;9.706;2023-07-31T15:20:40;23.10;77.20
4433;DHT22;2229;48.708;9.706;2023-07-31T15:23:08;23.20;77.30
4433;DHT22;2229;48.708;9.706;2023-07-31T15:25:36;23.20;77.60
4433;DHT22;2229;48.708;9.706;2023-07-31T15:28:04;23.30;77.50
4433;DHT22;2229;48.708;9.706;2023-07-31T15:30:33;23.20;77.10
4433;DHT22;2229;48.708;9.706;2023-07-31T15:33:01;23.20;77.30
4433;DHT22;2229;48.708;9.706;2023-07-31T15:35:30;23.10;76.90
4433;DHT22;2229;48.708;9.706;2023-07-31T15:37:57;23.10;77.00
4433;DHT22;2229;48.708;9.706;2023-07-31T15:40:24;23.10;77.50
4433;DHT22;2229;48.708;9.706;2023-07-31T15:42:53;23.10;78.10
4433;DHT22;2229;48.708;9.706;2023-07-31T15:45:20;23.10;77.80
4433;DHT22;2229;48.708;9.706;2023-07-31T15:47:49;23.00;77.20
4433;DHT22;2229;48.708;9.706;2023-07-31T15:50:16;23.00;77.20
4433;DHT22;2229;48.708;9.706;2023-07-31T15:52:45;22.90;76.70
4433;DHT22;2229;48.708;9.706;2023-07-31T15:55:13;22.90;75.90
4433;DHT22;2229;48.708;9.706;2023-07-31T15:57:40;22.90;76.40
4433;DHT22;2229;48.708;9.706;2023-07-31T16:00:09;22.90;76.00
4433;DHT22;2229;48.708;9.706;2023-07-31T16:02:36;22.90;75.60
4433;DHT22;2229;48.708;9.706;2023-07-31T16:05:04;22.90;75.70
4433;DHT22;2229;48.708;9.706;2023-07-31T16:07:31;22.90;75.80
4433;DHT22;2229;48.708;9.706;2023-07-31T16:10:00;23.00;76.00